createdAt,value
2023-01-12T00:01:10.386Z,6.60
2023-01-12T00:04:13.884Z,6.30
2023-01-12T00:07:18.069Z,6.70
2023-01-12T00:10:25.774Z,6.60
2023-01-12T00:13:29.716Z,6.30
2023-01-12T00:16:38.458Z,6.30
2023-01-12T00:19:41.560Z,6.40
2023-01-12T00:22:44.612Z,6.30
2023-01-12T00:25:54.284Z,6.60
2023-01-12T00:28:57.318Z,6.60
2023-01-12T00:32:01.283Z,6.30
2023-01-12T00:35:05.282Z,6.30
2023-01-12T00:38:08.238Z,6.40
2023-01-12T00:41:35.935Z,6.30
2023-01-12T00:44:56.595Z,6.30
2023-01-12T00:48:01.063Z,6.30
2023-01-12T00:51:04.971Z,6.10
2023-01-12T00:54:08.403Z,6.50
2023-01-12T00:57:14.485Z,6.10
2023-01-12T01:00:18.447Z,6.20
2023-01-12T01:03:21.702Z,6.40
2023-01-12T01:06:25.206Z,6.00
2023-01-12T01:09:28.459Z,6.40
2023-01-12T01:12:33.885Z,6.20
2023-01-12T01:15:37.452Z,6.40
2023-01-12T01:18:40.761Z,6.10
2023-01-12T01:21:43.793Z,6.50
2023-01-12T01:24:48.181Z,6.30
2023-01-12T01:27:52.574Z,6.20
2023-01-12T01:31:04.553Z,6.20
2023-01-12T01:34:07.575Z,6.20
2023-01-12T01:37:11.663Z,6.40
2023-01-12T01:40:14.968Z,6.30
2023-01-12T01:43:21.216Z,6.30
2023-01-12T01:46:34.667Z,6.20
2023-01-12T01:49:43.776Z,6.40
2023-01-12T01:52:50.688Z,6.40
2023-01-12T01:55:58.990Z,6.40
2023-01-12T01:59:10.998Z,6.40
2023-01-12T02:02:16.086Z,6.40
2023-01-12T02:05:25.147Z,6.50
2023-01-12T02:08:32.857Z,6.70
2023-01-12T02:11:53.904Z,6.80
2023-01-12T02:15:16.059Z,6.60
2023-01-12T02:18:25.942Z,6.80
2023-01-12T02:21:54.155Z,6.60
2023-01-12T02:25:32.895Z,6.80
2023-01-12T02:28:56.466Z,6.70
2023-01-12T02:32:08.270Z,6.90
2023-01-12T02:35:20.352Z,6.60
2023-01-12T02:38:35.120Z,6.60
2023-01-12T02:42:00.681Z,6.80
2023-01-12T02:45:11.153Z,6.70
2023-01-12T02:48:23.055Z,6.80
2023-01-12T02:51:33.272Z,6.60
2023-01-12T02:54:37.972Z,6.60
2023-01-12T02:57:42.153Z,6.80
2023-01-12T03:00:47.042Z,6.70
2023-01-12T03:03:52.836Z,6.80
2023-01-12T03:07:52.329Z,6.60
2023-01-12T03:11:03.608Z,7.00
2023-01-12T03:14:08.619Z,6.60
2023-01-12T03:17:17.522Z,6.80
2023-01-12T03:20:25.566Z,6.90
2023-01-12T03:23:34.065Z,6.70
2023-01-12T03:26:42.751Z,6.60
2023-01-12T03:29:55.691Z,6.90
2023-01-12T03:32:58.866Z,7.00
2023-01-12T03:36:13.457Z,6.80
2023-01-12T03:39:23.870Z,6.70
2023-01-12T03:42:31.662Z,7.00
2023-01-12T03:45:39.732Z,6.80
2023-01-12T03:48:48.224Z,6.70
2023-01-12T03:51:55.462Z,7.20
2023-01-12T03:55:01.191Z,7.10
2023-01-12T03:58:04.939Z,7.30
2023-01-12T04:01:08.147Z,7.00
2023-01-12T04:04:11.226Z,6.90
2023-01-12T04:07:15.557Z,6.90
2023-01-12T04:10:18.685Z,6.90
2023-01-12T04:13:21.697Z,6.90
2023-01-12T04:16:24.818Z,6.90
2023-01-12T04:19:27.827Z,6.90
2023-01-12T04:22:45.271Z,7.20
2023-01-12T04:25:48.308Z,7.30
2023-01-12T04:28:51.753Z,7.20
2023-01-12T04:31:55.889Z,6.90
2023-01-12T04:35:12.244Z,6.90
2023-01-12T04:38:18.137Z,7.00
2023-01-12T04:41:21.651Z,7.00
2023-01-12T04:44:24.623Z,7.20
2023-01-12T04:47:27.780Z,6.90
2023-01-12T04:50:31.135Z,6.80
2023-01-12T04:53:35.528Z,7.10
2023-01-12T04:56:38.756Z,7.00
2023-01-12T04:59:41.790Z,7.30
2023-01-12T05:02:44.805Z,7.20
2023-01-12T05:05:47.826Z,7.10
2023-01-12T05:09:10.048Z,7.00
2023-01-12T05:12:13.251Z,7.50
2023-01-12T05:15:16.700Z,7.40
2023-01-12T05:18:19.724Z,7.30
2023-01-12T05:21:23.428Z,7.30
2023-01-12T05:24:27.834Z,7.40
2023-01-12T05:27:32.052Z,7.50
2023-01-12T05:30:35.112Z,7.40
2023-01-12T05:33:40.771Z,7.40
2023-01-12T05:36:43.742Z,7.50
2023-01-12T05:39:48.161Z,7.70
2023-01-12T05:43:15.572Z,7.50
2023-01-12T05:46:20.229Z,7.50
2023-01-12T05:49:29.532Z,7.60
2023-01-12T05:52:32.498Z,7.70
2023-01-12T05:55:37.837Z,7.60
2023-01-12T05:58:40.823Z,7.80
2023-01-12T06:01:44.090Z,7.60
2023-01-12T06:04:47.278Z,7.60
2023-01-12T06:07:50.304Z,7.70
2023-01-12T06:10:54.702Z,7.70
2023-01-12T06:13:59.563Z,7.60
2023-01-12T06:17:02.631Z,7.70
2023-01-12T06:20:06.900Z,7.80
2023-01-12T06:23:09.990Z,7.80
2023-01-12T06:26:14.424Z,7.80
2023-01-12T06:29:17.391Z,7.80
2023-01-12T06:32:20.393Z,7.80
2023-01-12T06:35:23.416Z,7.80
2023-01-12T06:38:28.158Z,7.80
2023-01-12T06:41:51.810Z,7.80
2023-01-12T06:44:54.831Z,7.80
2023-01-12T06:47:58.984Z,8.00
2023-01-12T06:51:02.385Z,7.70
2023-01-12T06:54:05.443Z,7.70
2023-01-12T06:57:09.841Z,7.90
2023-01-12T07:00:13.904Z,7.70
2023-01-12T07:03:18.786Z,7.80
2023-01-12T07:06:21.851Z,7.90
2023-01-12T07:09:24.851Z,7.70
2023-01-12T07:12:29.262Z,7.90
2023-01-12T07:15:32.231Z,7.70
2023-01-12T07:18:35.326Z,7.70
2023-01-12T07:21:38.337Z,7.70
2023-01-12T07:24:41.354Z,7.70
2023-01-12T07:27:51.738Z,7.70
2023-01-12T07:31:00.420Z,7.90
2023-01-12T07:34:03.587Z,7.70
2023-01-12T07:37:07.477Z,7.70
2023-01-12T07:40:12.059Z,7.70
2023-01-12T07:43:17.265Z,7.90
2023-01-12T07:46:20.336Z,7.80
2023-01-12T07:49:23.428Z,7.80
2023-01-12T07:52:26.391Z,7.80
2023-01-12T07:55:29.478Z,7.90
2023-01-12T07:58:33.862Z,8.00
2023-01-12T08:01:37.210Z,8.00
2023-01-12T08:04:40.266Z,8.00
2023-01-12T08:07:45.530Z,8.00
2023-01-12T08:10:50.191Z,8.00
2023-01-12T08:13:56.906Z,8.20
2023-01-12T08:17:02.806Z,8.10
2023-01-12T08:20:11.245Z,8.10
2023-01-12T08:23:19.001Z,8.00
2023-01-12T08:26:25.826Z,8.10
2023-01-12T08:29:40.150Z,8.10
2023-01-12T08:32:43.482Z,8.30
2023-01-12T08:35:48.143Z,8.20
2023-01-12T08:38:51.369Z,8.20
2023-01-12T08:41:54.351Z,8.30
2023-01-12T08:44:58.732Z,8.30
2023-01-12T08:48:03.319Z,8.40
2023-01-12T08:51:07.925Z,8.30
2023-01-12T08:54:12.197Z,8.40
2023-01-12T08:57:16.247Z,8.40
2023-01-12T09:00:22.502Z,8.40
2023-01-12T09:03:25.551Z,8.50
2023-01-12T09:06:30.497Z,8.60
2023-01-12T09:09:33.588Z,8.60
2023-01-12T09:12:36.614Z,8.60
2023-01-12T09:15:41.182Z,8.60
2023-01-12T09:18:45.163Z,8.70
2023-01-12T09:21:48.188Z,8.70
2023-01-12T09:24:51.179Z,8.80
2023-01-12T09:27:54.178Z,8.90
2023-01-12T09:31:02.175Z,9.00
2023-01-12T09:34:05.299Z,9.00
2023-01-12T09:37:10.982Z,9.00
2023-01-12T09:40:15.636Z,9.00
2023-01-12T09:43:35.892Z,9.10
2023-01-12T09:47:09.299Z,9.10
2023-01-12T09:50:15.079Z,9.30
2023-01-12T09:53:22.903Z,9.30
2023-01-12T09:56:32.910Z,9.30
2023-01-12T09:59:46.075Z,9.20
2023-01-12T10:02:53.921Z,9.30
2023-01-12T10:05:59.154Z,9.30
2023-01-12T10:09:04.045Z,9.40
2023-01-12T10:12:16.488Z,9.40
2023-01-12T10:15:31.921Z,9.50
2023-01-12T10:18:42.179Z,9.60
2023-01-12T10:21:45.591Z,9.60
2023-01-12T10:24:48.791Z,9.70
2023-01-12T10:27:53.988Z,9.60
2023-01-12T10:30:57.828Z,9.70
2023-01-12T10:34:07.990Z,9.80
2023-01-12T10:37:12.447Z,9.80
2023-01-12T10:40:25.339Z,9.80
2023-01-12T10:43:32.320Z,9.80
2023-01-12T10:46:36.073Z,9.80
2023-01-12T10:49:40.542Z,9.80
2023-01-12T10:52:43.691Z,9.80
2023-01-12T10:55:47.541Z,9.80
2023-01-12T10:58:55.903Z,9.70
2023-01-12T11:02:17.677Z,9.70
2023-01-12T11:05:38.517Z,9.80
2023-01-12T11:08:41.900Z,9.70
2023-01-12T11:11:45.135Z,9.70
2023-01-12T11:15:01.602Z,9.70
2023-01-12T11:18:36.537Z,9.70
2023-01-12T11:21:44.138Z,9.50
2023-01-12T11:24:53.019Z,9.50
2023-01-12T11:28:01.779Z,9.40
2023-01-12T11:31:11.900Z,9.40
2023-01-12T11:34:18.841Z,9.40
2023-01-12T11:37:23.373Z,9.40
2023-01-12T11:40:31.753Z,9.30
2023-01-12T11:43:51.007Z,9.30
2023-01-12T11:47:00.671Z,9.30
2023-01-12T11:50:08.326Z,9.30
2023-01-12T11:53:17.934Z,9.30
2023-01-12T11:56:38.977Z,9.30
2023-01-12T11:59:51.367Z,9.30
2023-01-12T12:03:07.670Z,9.40
2023-01-12T12:06:35.183Z,9.40
2023-01-12T12:09:54.131Z,9.40
2023-01-12T12:13:26.998Z,9.40
2023-01-12T12:16:38.786Z,9.50
2023-01-12T12:19:50.587Z,9.50
2023-01-12T12:23:06.626Z,9.50
2023-01-12T12:26:17.409Z,9.60
2023-01-12T12:29:34.215Z,9.60
2023-01-12T12:32:45.603Z,9.60
2023-01-12T12:36:02.716Z,9.80
2023-01-12T12:39:35.337Z,9.70
2023-01-12T12:43:10.740Z,9.80
2023-01-12T12:46:21.521Z,9.80
2023-01-12T12:49:32.702Z,9.80
2023-01-12T12:52:35.923Z,9.90
2023-01-12T12:55:39.087Z,9.90
2023-01-12T12:58:46.326Z,9.90
2023-01-12T13:02:00.957Z,10.00
2023-01-12T13:05:07.152Z,10.00
2023-01-12T13:08:25.429Z,9.90
2023-01-12T13:11:53.645Z,10.00
2023-01-12T13:15:22.434Z,10.00
2023-01-12T13:19:04.096Z,10.00
2023-01-12T13:22:28.592Z,10.00
2023-01-12T13:25:53.263Z,10.00
2023-01-12T13:29:29.662Z,10.00
2023-01-12T13:32:50.551Z,9.90
2023-01-12T13:36:10.706Z,10.00
2023-01-12T13:39:16.200Z,9.90
2023-01-12T13:42:39.990Z,10.00
2023-01-12T13:45:50.440Z,10.00
2023-01-12T13:48:56.835Z,10.00
2023-01-12T13:52:02.558Z,10.00
2023-01-12T13:55:18.799Z,10.00
2023-01-12T13:58:21.819Z,10.00
2023-01-12T14:01:28.203Z,10.00
2023-01-12T14:04:55.622Z,10.00
2023-01-12T14:08:09.258Z,10.00
2023-01-12T14:11:27.452Z,10.00
2023-01-12T14:15:06.621Z,10.00
2023-01-12T14:18:12.948Z,10.00
2023-01-12T14:21:26.388Z,10.10
2023-01-12T14:24:29.496Z,10.10
2023-01-12T14:27:32.536Z,10.10
2023-01-12T14:30:36.508Z,10.10
2023-01-12T14:33:41.067Z,10.10
2023-01-12T14:36:47.202Z,10.10
2023-01-12T14:39:50.288Z,10.10
2023-01-12T14:43:12.283Z,10.10
2023-01-12T14:46:28.063Z,10.10
2023-01-12T14:49:33.316Z,10.10
2023-01-12T14:52:37.911Z,10.20
2023-01-12T14:55:41.715Z,10.20
2023-01-12T14:58:46.732Z,10.20
2023-01-12T15:01:50.262Z,10.20
2023-01-12T15:04:57.276Z,10.20
2023-01-12T15:08:03.602Z,10.30
2023-01-12T15:11:09.340Z,10.30
2023-01-12T15:14:24.947Z,10.20
2023-01-12T15:17:45.425Z,10.30
2023-01-12T15:21:21.790Z,10.30
2023-01-12T15:24:46.211Z,10.30
2023-01-12T15:27:49.219Z,10.30
2023-01-12T15:30:53.523Z,10.40
2023-01-12T15:33:58.063Z,10.40
2023-01-12T15:37:01.308Z,10.30
2023-01-12T15:40:06.746Z,10.30
2023-01-12T15:43:14.026Z,10.30
2023-01-12T15:46:20.433Z,10.30
2023-01-12T15:49:23.463Z,10.30
2023-01-12T15:52:27.480Z,10.20
2023-01-12T15:55:35.711Z,10.20
2023-01-12T15:58:38.697Z,10.30
2023-01-12T16:01:44.721Z,10.30
2023-01-12T16:04:47.979Z,10.30
2023-01-12T16:07:51.381Z,10.30
2023-01-12T16:11:12.409Z,10.40
2023-01-12T16:14:16.126Z,10.30
2023-01-12T16:17:19.235Z,10.40
2023-01-12T16:20:22.236Z,10.40
2023-01-12T16:23:25.407Z,10.40
2023-01-12T16:26:30.994Z,10.50
2023-01-12T16:29:34.049Z,10.50
2023-01-12T16:32:37.196Z,10.50
2023-01-12T16:35:40.199Z,10.50
2023-01-12T16:38:43.508Z,10.50
2023-01-12T16:41:48.792Z,10.50
2023-01-12T16:44:52.051Z,10.50
2023-01-12T16:47:57.451Z,10.50
2023-01-12T16:51:00.691Z,10.50
2023-01-12T16:54:04.762Z,10.60
2023-01-12T16:57:09.518Z,10.60
2023-01-12T17:00:13.469Z,10.50
2023-01-12T17:03:16.595Z,10.50
2023-01-12T17:06:21.736Z,10.60
2023-01-12T17:09:24.780Z,10.60
2023-01-12T17:12:29.251Z,10.60
2023-01-12T17:15:34.786Z,10.60
2023-01-12T17:18:38.083Z,10.70
2023-01-12T17:21:41.772Z,10.70
2023-01-12T17:24:44.802Z,10.70
2023-01-12T17:27:49.366Z,10.60
2023-01-12T17:30:52.472Z,10.60
2023-01-12T17:33:55.620Z,10.60
2023-01-12T17:36:59.909Z,10.70
2023-01-12T17:40:03.041Z,10.70
2023-01-12T17:43:08.470Z,10.70
2023-01-12T17:46:19.737Z,10.70
2023-01-12T17:49:23.154Z,10.70
2023-01-12T17:52:26.335Z,10.70
2023-01-12T17:55:31.676Z,10.70
2023-01-12T17:58:36.562Z,10.80
2023-01-12T18:01:41.017Z,10.80
2023-01-12T18:04:45.810Z,10.80
2023-01-12T18:07:49.015Z,10.80
2023-01-12T18:10:52.953Z,10.80
2023-01-12T18:13:57.866Z,10.80
2023-01-12T18:17:00.892Z,10.70
2023-01-12T18:20:04.439Z,10.80
2023-01-12T18:23:07.455Z,10.80
2023-01-12T18:26:14.080Z,10.90
2023-01-12T18:29:18.449Z,10.90
2023-01-12T18:32:21.593Z,10.90
2023-01-12T18:35:24.842Z,10.90
2023-01-12T18:38:28.421Z,10.90
2023-01-12T18:41:50.089Z,10.90
2023-01-12T18:44:54.619Z,10.80
2023-01-12T18:48:15.325Z,10.90
2023-01-12T18:51:36.132Z,10.90
2023-01-12T18:54:41.218Z,10.90
2023-01-12T18:57:44.195Z,10.90
2023-01-12T19:00:48.602Z,10.90
2023-01-12T19:03:52.518Z,10.90
2023-01-12T19:07:00.496Z,10.90
2023-01-12T19:10:03.854Z,10.90
2023-01-12T19:13:24.393Z,10.90
2023-01-12T19:16:46.697Z,10.90
2023-01-12T19:19:49.806Z,10.90
2023-01-12T19:23:10.086Z,10.90
2023-01-12T19:26:30.631Z,11.00
2023-01-12T19:29:34.167Z,11.00
2023-01-12T19:32:38.629Z,10.90
2023-01-12T19:35:42.407Z,10.90
2023-01-12T19:38:50.602Z,11.00
2023-01-12T19:42:11.111Z,11.00
2023-01-12T19:45:14.304Z,11.00
2023-01-12T19:48:20.651Z,11.00
2023-01-12T19:51:23.650Z,11.00
2023-01-12T19:54:27.347Z,10.90
2023-01-12T19:57:30.438Z,10.90
2023-01-12T20:00:33.468Z,10.90
2023-01-12T20:03:39.757Z,10.90
2023-01-12T20:06:42.836Z,10.80
2023-01-12T20:09:46.039Z,10.80
2023-01-12T20:12:49.465Z,10.60
2023-01-12T20:15:53.092Z,10.50
2023-01-12T20:18:59.454Z,10.40
2023-01-12T20:22:02.595Z,10.30
2023-01-12T20:25:07.088Z,10.20
2023-01-12T20:28:11.069Z,10.20
2023-01-12T20:31:16.748Z,10.10
2023-01-12T20:34:22.158Z,10.10
2023-01-12T20:37:25.172Z,10.10
2023-01-12T20:40:28.290Z,10.00
2023-01-12T20:43:31.353Z,10.00
2023-01-12T20:46:35.065Z,9.90
2023-01-12T20:49:39.450Z,9.90
2023-01-12T20:52:43.306Z,9.80
2023-01-12T20:55:49.428Z,9.80
2023-01-12T20:58:52.683Z,9.70
2023-01-12T21:01:55.771Z,9.70
2023-01-12T21:05:00.188Z,9.70
2023-01-12T21:08:08.330Z,9.70
2023-01-12T21:11:12.295Z,9.60
2023-01-12T21:14:15.289Z,9.60
2023-01-12T21:17:18.353Z,9.70
2023-01-12T21:20:22.969Z,9.70
2023-01-12T21:23:27.061Z,9.60
2023-01-12T21:26:31.385Z,9.60
2023-01-12T21:29:34.825Z,9.50
2023-01-12T21:32:38.010Z,9.50
2023-01-12T21:35:42.578Z,9.50
2023-01-12T21:38:47.440Z,9.50
2023-01-12T21:42:08.318Z,9.60
2023-01-12T21:45:11.411Z,9.60
2023-01-12T21:48:15.836Z,9.60
2023-01-12T21:51:20.258Z,9.50
2023-01-12T21:54:23.257Z,9.50
2023-01-12T21:57:26.502Z,9.50
2023-01-12T22:00:30.259Z,9.50
2023-01-12T22:03:33.243Z,9.60
2023-01-12T22:06:38.118Z,9.50
2023-01-12T22:09:41.122Z,9.50
2023-01-12T22:12:44.945Z,9.50
2023-01-12T22:15:50.887Z,9.50
2023-01-12T22:18:53.940Z,9.50
2023-01-12T22:21:58.410Z,9.50
2023-01-12T22:25:01.479Z,9.40
2023-01-12T22:28:04.756Z,9.40
2023-01-12T22:31:09.505Z,9.50
2023-01-12T22:34:12.844Z,9.40
2023-01-12T22:37:17.253Z,9.50
2023-01-12T22:40:20.403Z,9.60
2023-01-12T22:43:29.357Z,9.50
2023-01-12T22:46:32.626Z,9.60
2023-01-12T22:49:35.624Z,9.50
2023-01-12T22:52:40.096Z,9.60
2023-01-12T22:55:43.092Z,9.60
2023-01-12T22:58:48.431Z,9.60
2023-01-12T23:01:51.529Z,9.50
2023-01-12T23:04:54.619Z,9.50
2023-01-12T23:07:59.284Z,9.50
2023-01-12T23:11:06.974Z,9.50
2023-01-12T23:14:10.037Z,9.50
2023-01-12T23:17:13.258Z,9.50
2023-01-12T23:20:16.437Z,9.60
2023-01-12T23:23:20.963Z,9.50
2023-01-12T23:26:25.839Z,9.50
2023-01-12T23:29:30.316Z,9.50
2023-01-12T23:32:33.992Z,9.50
2023-01-12T23:35:39.091Z,9.60
2023-01-12T23:38:43.819Z,9.60
2023-01-12T23:41:46.834Z,9.60
2023-01-12T23:44:49.871Z,9.60
2023-01-12T23:47:52.882Z,9.60
2023-01-12T23:50:58.791Z,9.60
2023-01-12T23:54:03.955Z,9.60
2023-01-12T23:57:07.051Z,9.60
